Time;durP1;ratioP1;P1;durP2;ratioP2;P2;SDS_P1;SDS_P2;PMS_P1;PMS_P2;Temp;Humidity;BMP_temperature;BMP_pressure;BME280_temperature;BME280_humidity;BME280_pressure;Samples;Min_cycle;Max_cycle;Signal;HPM_P1;HPM_P2
2022/02/25 00:00:43;;;;;;;1.00;0.87;;;4.30;99.90;;;;;;4992513;28;20191;-68
2022/02/25 00:03:09;;;;;;;2.30;1.03;;;4.30;99.90;;;;;;4991967;28;20542;-68
2022/02/25 00:05:35;;;;;;;3.83;1.20;;;4.30;99.90;;;;;;4995653;28;20215;-69
2022/02/25 00:08:01;;;;;;;1.27;1.07;;;4.30;99.90;;;;;;4992241;28;20254;-68
2022/02/25 00:10:28;;;;;;;3.20;1.10;;;4.30;99.90;;;;;;4991654;28;20443;-69
2022/02/25 00:12:53;;;;;;;1.87;0.90;;;4.30;99.90;;;;;;5001996;28;20442;-68
2022/02/25 00:15:19;;;;;;;2.77;1.60;;;4.30;99.90;;;;;;4991522;28;20516;-69
2022/02/25 00:17:45;;;;;;;1.00;0.80;;;4.30;99.90;;;;;;4994652;28;20192;-68
2022/02/25 00:20:12;;;;;;;1.20;1.10;;;4.30;99.90;;;;;;5001584;28;20747;-68
2022/02/25 00:22:41;;;;;;;3.43;1.33;;;4.20;99.90;;;;;;4994322;28;20489;-69
2022/02/25 00:25:09;;;;;;;2.33;1.40;;;4.20;99.90;;;;;;4992392;28;21003;-69
2022/02/25 00:27:38;;;;;;;2.60;0.90;;;4.10;99.90;;;;;;4991873;28;20987;-69
2022/02/25 00:30:05;;;;;;;1.37;1.07;;;4.10;99.90;;;;;;4992363;28;20529;-69
2022/02/25 00:32:30;;;;;;;2.27;1.00;;;4.20;99.90;;;;;;4999539;28;20519;-68
2022/02/25 00:34:56;;;;;;;2.90;1.10;;;4.10;99.90;;;;;;4991577;28;20496;-69
2022/02/25 00:37:21;;;;;;;1.50;1.20;;;4.10;99.90;;;;;;4998692;28;20284;-68
2022/02/25 00:39:47;;;;;;;0.97;0.80;;;4.10;99.90;;;;;;4995314;28;20184;-69
2022/02/25 00:42:13;;;;;;;1.50;0.90;;;4.00;99.90;;;;;;4998711;28;20189;-69
2022/02/25 00:44:38;;;;;;;1.47;1.27;;;4.10;99.90;;;;;;4995204;28;20192;-69
2022/02/25 00:47:04;;;;;;;2.50;0.97;;;4.10;99.90;;;;;;4998539;28;20202;-69
2022/02/25 00:49:30;;;;;;;3.30;1.33;;;4.00;99.90;;;;;;4999819;28;20207;-69
2022/02/25 00:51:56;;;;;;;2.33;0.97;;;4.00;99.90;;;;;;5008444;28;20429;-68
2022/02/25 00:54:21;;;;;;;3.37;1.20;;;4.00;99.90;;;;;;4997422;28;20202;-69
2022/02/25 00:56:46;;;;;;;6.87;1.83;;;3.90;99.90;;;;;;4994958;28;20701;-69
2022/02/25 00:59:12;;;;;;;4.07;1.37;;;4.00;99.90;;;;;;5007147;28;20187;-69
2022/02/25 01:01:38;;;;;;;2.17;1.20;;;3.90;99.90;;;;;;4999784;28;20229;-69
2022/02/25 01:04:03;;;;;;;2.40;1.37;;;3.80;99.90;;;;;;5003706;28;20227;-68
2022/02/25 01:06:29;;;;;;;3.37;1.40;;;3.80;99.90;;;;;;4994768;28;20183;-68
2022/02/25 01:08:54;;;;;;;1.93;1.40;;;3.70;99.90;;;;;;4994659;28;20265;-69
2022/02/25 01:11:20;;;;;;;4.43;1.17;;;3.60;99.90;;;;;;4994521;28;20259;-68
2022/02/25 01:13:45;;;;;;;1.50;1.40;;;3.60;99.90;;;;;;5002425;28;20202;-69
2022/02/25 01:16:11;;;;;;;2.80;1.80;;;3.60;99.90;;;;;;4995259;28;20183;-68
2022/02/25 01:18:36;;;;;;;2.90;1.63;;;3.60;99.90;;;;;;4994847;28;20180;-69
2022/02/25 01:21:02;;;;;;;3.40;1.47;;;3.60;99.90;;;;;;4994805;28;20174;-68
2022/02/25 01:23:28;;;;;;;1.43;1.10;;;3.60;99.90;;;;;;4994927;28;20175;-69
2022/02/25 01:25:53;;;;;;;1.87;1.67;;;3.50;99.90;;;;;;4994523;28;20234;-68
2022/02/25 01:28:19;;;;;;;4.67;2.40;;;3.40;99.90;;;;;;4994708;28;20253;-68
2022/02/25 01:30:44;;;;;;;2.93;1.33;;;3.30;99.90;;;;;;4998025;28;20182;-69
2022/02/25 01:33:10;;;;;;;1.83;1.13;;;3.20;99.90;;;;;;5005144;28;20183;-68
2022/02/25 01:35:37;;;;;;;5.83;1.73;;;3.20;99.90;;;;;;5005056;28;20201;-68
2022/02/25 01:38:02;;;;;;;1.53;1.13;;;3.20;99.90;;;;;;4997717;28;20175;-68
2022/02/25 01:40:28;;;;;;;4.37;1.17;;;3.10;99.90;;;;;;5005377;28;20505;-68
2022/02/25 01:42:53;;;;;;;2.00;1.80;;;3.00;99.90;;;;;;4994698;28;20183;-68
2022/02/25 01:45:20;;;;;;;1.53;1.10;;;3.00;99.90;;;;;;4996797;28;20198;-69
2022/02/25 01:47:47;;;;;;;1.23;1.13;;;3.00;99.90;;;;;;5002165;28;20208;-68
2022/02/25 01:50:13;;;;;;;3.57;1.53;;;2.90;99.90;;;;;;4997076;28;20434;-68
2022/02/25 01:52:53;;;;;;;1.13;1.03;;;2.90;99.90;;;;;;4996780;28;20488;-68
2022/02/25 01:55:19;;;;;;;2.17;0.93;;;2.90;99.90;;;;;;4994962;28;20454;-68
2022/02/25 01:57:44;;;;;;;3.13;1.27;;;2.90;99.90;;;;;;5002965;28;20981;-68
2022/02/25 02:00:10;;;;;;;1.30;1.00;;;2.90;99.90;;;;;;4997356;28;20238;-68
2022/02/25 02:02:36;;;;;;;2.50;1.77;;;2.90;99.90;;;;;;4994063;28;20197;-68
2022/02/25 02:05:02;;;;;;;2.60;1.47;;;2.80;99.90;;;;;;5005336;28;20461;-69
2022/02/25 02:07:27;;;;;;;2.30;1.50;;;2.80;99.90;;;;;;4993579;28;20184;-68
2022/02/25 02:09:53;;;;;;;2.80;1.27;;;2.80;99.90;;;;;;4994737;28;20176;-68
2022/02/25 02:12:18;;;;;;;2.20;1.20;;;2.70;99.90;;;;;;4993763;28;20180;-68
2022/02/25 02:14:47;;;;;;;3.20;1.43;;;2.70;99.90;;;;;;5001331;28;20302;-68
2022/02/25 02:17:13;;;;;;;1.23;1.13;;;2.60;99.90;;;;;;5025123;28;20712;-68
2022/02/25 02:19:38;;;;;;;1.70;1.60;;;2.60;99.90;;;;;;5006671;28;20445;-68
2022/02/25 02:22:06;;;;;;;1.37;1.10;;;2.60;99.90;;;;;;4994599;28;20263;-69
2022/02/25 02:24:32;;;;;;;2.90;1.47;;;2.60;99.90;;;;;;4993481;28;20213;-68
2022/02/25 02:26:57;;;;;;;2.30;1.23;;;2.60;99.90;;;;;;4999194;28;20526;-69
2022/02/25 02:29:23;;;;;;;3.03;1.47;;;2.50;99.90;;;;;;4993419;28;20236;-68
2022/02/25 02:31:49;;;;;;;2.33;1.50;;;2.60;99.90;;;;;;4998389;28;20593;-68
2022/02/25 02:34:16;;;;;;;1.27;1.17;;;2.50;99.90;;;;;;4993265;28;20461;-69
2022/02/25 02:36:42;;;;;;;7.53;1.47;;;2.40;99.90;;;;;;5004785;28;20178;-68
2022/02/25 02:39:08;;;;;;;5.13;1.60;;;2.50;99.90;;;;;;4993749;28;20434;-68
2022/02/25 02:41:35;;;;;;;3.70;1.30;;;2.50;99.90;;;;;;4994229;28;20172;-68
2022/02/25 02:44:01;;;;;;;6.90;2.10;;;2.50;99.90;;;;;;4993481;28;20450;-68
2022/02/25 02:46:26;;;;;;;3.87;1.10;;;2.50;99.90;;;;;;4993029;28;20458;-68
2022/02/25 02:48:52;;;;;;;5.17;1.30;;;2.40;99.90;;;;;;4992958;28;20206;-68
2022/02/25 02:51:17;;;;;;;5.90;1.37;;;2.40;99.90;;;;;;5004375;28;20541;-68
2022/02/25 02:53:43;;;;;;;6.03;1.77;;;2.40;99.90;;;;;;5001183;28;20273;-68
2022/02/25 02:56:10;;;;;;;2.73;1.33;;;2.40;99.90;;;;;;4995408;28;20658;-69
2022/02/25 02:58:35;;;;;;;3.30;1.30;;;2.30;99.90;;;;;;4997734;28;20195;-69
2022/02/25 03:01:03;;;;;;;4.03;1.20;;;2.30;99.90;;;;;;4992798;28;20438;-69
2022/02/25 03:03:28;;;;;;;1.80;1.70;;;2.30;99.90;;;;;;4998105;28;20600;-69
2022/02/25 03:05:54;;;;;;;3.07;1.70;;;2.30;99.90;;;;;;4998271;28;20441;-69
2022/02/25 03:08:19;;;;;;;4.10;1.47;;;2.30;99.90;;;;;;4994104;28;20198;-69
2022/02/25 03:10:45;;;;;;;4.47;1.30;;;2.30;99.90;;;;;;5005216;28;20176;-69
2022/02/25 03:13:12;;;;;;;16.40;3.50;;;2.30;99.90;;;;;;4993649;28;20178;-69
2022/02/25 03:15:38;;;;;;;7.53;2.83;;;2.30;99.90;;;;;;4992140;28;20521;-68
2022/02/25 03:18:05;;;;;;;3.20;2.00;;;2.30;99.90;;;;;;4997487;28;20522;-68
2022/02/25 03:20:30;;;;;;;2.60;1.20;;;2.30;99.90;;;;;;4993536;28;20529;-69
2022/02/25 03:22:56;;;;;;;4.93;2.17;;;2.30;99.90;;;;;;4998889;28;20534;-68
2022/02/25 03:25:22;;;;;;;2.00;1.80;;;2.30;99.90;;;;;;4991889;28;20204;-69
2022/02/25 03:27:48;;;;;;;5.80;1.30;;;2.30;99.90;;;;;;4992065;28;20210;-69
2022/02/25 03:30:14;;;;;;;3.33;1.33;;;2.30;99.90;;;;;;4992427;28;20431;-68
2022/02/25 03:32:43;;;;;;;3.07;2.00;;;2.30;99.90;;;;;;5002353;28;20477;-69
2022/02/25 03:35:13;;;;;;;6.00;2.00;;;2.30;99.90;;;;;;5000262;28;20520;-69
2022/02/25 03:37:39;;;;;;;1.90;1.40;;;2.30;99.90;;;;;;4995966;28;20434;-69
2022/02/25 03:40:07;;;;;;;9.60;1.40;;;2.30;99.90;;;;;;4993196;28;20438;-69
2022/02/25 03:42:33;;;;;;;2.33;1.40;;;2.30;99.90;;;;;;4992116;28;20500;-69
2022/02/25 03:44:59;;;;;;;2.87;1.67;;;2.30;99.90;;;;;;4998012;28;20983;-69
2022/02/25 03:47:25;;;;;;;1.47;1.37;;;2.20;99.90;;;;;;4991968;28;20522;-69
2022/02/25 03:49:50;;;;;;;3.57;1.43;;;2.30;99.90;;;;;;5004391;28;20175;-69
2022/02/25 03:52:16;;;;;;;3.27;1.50;;;2.30;99.90;;;;;;4998847;28;20175;-68
2022/02/25 03:54:41;;;;;;;3.80;1.10;;;2.30;99.90;;;;;;5011186;28;20255;-69
2022/02/25 03:57:07;;;;;;;4.30;1.27;;;2.30;99.90;;;;;;5001626;28;20679;-69
2022/02/25 03:59:32;;;;;;;2.80;1.30;;;2.30;99.90;;;;;;4992331;28;20191;-69
2022/02/25 04:01:58;;;;;;;3.00;1.50;;;2.30;99.90;;;;;;5003641;28;20685;-69
2022/02/25 04:04:26;;;;;;;3.73;1.60;;;2.30;99.90;;;;;;4992198;28;20207;-68
2022/02/25 04:06:52;;;;;;;1.80;1.20;;;2.30;99.90;;;;;;4994891;28;20172;-69
2022/02/25 04:09:20;;;;;;;3.20;1.50;;;2.30;99.90;;;;;;4991073;28;20584;-69
2022/02/25 04:11:47;;;;;;;4.30;1.90;;;2.20;99.90;;;;;;4999223;28;20489;-68
2022/02/25 04:14:14;;;;;;;2.77;1.33;;;2.20;99.90;;;;;;4992749;28;20457;-69
2022/02/25 04:16:40;;;;;;;1.97;1.60;;;2.20;99.90;;;;;;5006604;28;20469;-68
2022/02/25 04:19:06;;;;;;;7.60;2.27;;;2.20;99.90;;;;;;5001169;28;20457;-68
2022/02/25 04:21:32;;;;;;;2.10;1.37;;;2.20;99.90;;;;;;4995515;28;20434;-68
2022/02/25 04:23:57;;;;;;;2.93;1.27;;;2.20;99.90;;;;;;4996815;28;20469;-69
2022/02/25 04:26:23;;;;;;;9.57;1.47;;;2.20;99.90;;;;;;4995174;28;20187;-68
2022/02/25 04:28:50;;;;;;;4.70;1.57;;;2.20;99.90;;;;;;4996497;28;20215;-69
2022/02/25 04:31:15;;;;;;;3.33;1.40;;;2.20;99.90;;;;;;4995756;28;20176;-69
2022/02/25 04:33:41;;;;;;;4.63;1.57;;;2.20;99.90;;;;;;5032700;22;20484;-72
2022/02/25 04:36:06;;;;;;;3.00;1.03;;;2.20;99.90;;;;;;5034350;28;20175;-73
2022/02/25 04:38:32;;;;;;;1.80;1.30;;;2.20;99.90;;;;;;5034760;28;20197;-73
2022/02/25 04:41:01;;;;;;;5.93;1.30;;;2.20;99.90;;;;;;5034872;28;20655;-72
2022/02/25 04:43:28;;;;;;;3.33;1.63;;;2.20;99.90;;;;;;5024128;28;20579;-72
2022/02/25 04:45:54;;;;;;;8.40;1.90;;;2.20;99.90;;;;;;5014994;28;20437;-72
2022/02/25 04:48:19;;;;;;;3.43;1.27;;;2.20;99.90;;;;;;5014833;28;20804;-72
2022/02/25 04:50:45;;;;;;;7.03;1.23;;;2.20;99.90;;;;;;5014841;28;20175;-72
2022/02/25 04:53:10;;;;;;;10.07;2.07;;;2.30;99.90;;;;;;5014761;28;20199;-72
2022/02/25 04:55:36;;;;;;;2.37;1.20;;;2.30;99.90;;;;;;5014584;28;20622;-72
2022/02/25 04:58:02;;;;;;;3.03;1.37;;;2.30;99.90;;;;;;5014709;28;20175;-72
2022/02/25 05:00:27;;;;;;;2.80;1.00;;;2.30;99.90;;;;;;5015031;28;20171;-72
2022/02/25 05:02:53;;;;;;;4.53;1.40;;;2.30;99.90;;;;;;5014511;28;20286;-72
2022/02/25 05:05:18;;;;;;;3.17;1.60;;;2.30;99.90;;;;;;5014783;28;20652;-72
2022/02/25 05:07:44;;;;;;;2.50;1.13;;;2.30;99.90;;;;;;5014355;28;20207;-72
2022/02/25 05:10:10;;;;;;;4.53;1.17;;;2.40;99.90;;;;;;5014890;28;20183;-72
2022/02/25 05:12:36;;;;;;;3.37;1.30;;;2.40;99.90;;;;;;5014448;28;20226;-72
2022/02/25 05:20:30;;;;;;;3.93;1.53;;;2.60;99.90;;;;;;5014804;28;20440;-72
2022/02/25 05:22:58;;;;;;;8.50;1.20;;;2.60;99.90;;;;;;5013995;28;21030;-72
2022/02/25 05:25:25;;;;;;;3.47;1.23;;;2.60;99.90;;;;;;5013701;28;20245;-72
2022/02/25 05:27:52;;;;;;;3.73;1.30;;;2.70;99.90;;;;;;5013816;28;20512;-73
2022/02/25 05:30:19;;;;;;;11.93;2.00;;;2.70;99.90;;;;;;5013902;28;20484;-72
2022/02/25 05:32:46;;;;;;;4.93;1.27;;;2.80;99.90;;;;;;5012915;28;20466;-71
2022/02/25 05:35:12;;;;;;;4.17;1.77;;;2.90;99.90;;;;;;5013506;28;20512;-72
2022/02/25 05:37:39;;;;;;;2.07;1.53;;;2.90;99.90;;;;;;5014208;28;20464;-72
2022/02/25 05:40:07;;;;;;;6.93;1.70;;;2.90;99.90;;;;;;5013470;28;20857;-71
2022/02/25 05:42:34;;;;;;;4.80;1.90;;;2.80;99.90;;;;;;5014056;28;20813;-72
2022/02/25 05:45:00;;;;;;;1.93;1.40;;;2.80;99.90;;;;;;5013275;28;20802;-71
2022/02/25 05:47:27;;;;;;;5.27;1.67;;;2.70;99.90;;;;;;5013589;28;20429;-72
2022/02/25 05:49:53;;;;;;;3.80;1.80;;;2.70;99.90;;;;;;5013745;28;20442;-72
2022/02/25 05:52:18;;;;;;;3.17;1.70;;;2.60;99.90;;;;;;5013767;28;20946;-72
2022/02/25 05:54:44;;;;;;;7.70;2.23;;;2.60;99.90;;;;;;5013376;28;20183;-72
2022/02/25 05:57:10;;;;;;;3.83;1.73;;;2.70;99.90;;;;;;5016675;28;20187;-71
2022/02/25 05:59:35;;;;;;;2.17;1.63;;;2.70;99.90;;;;;;5013560;28;20178;-72
2022/02/25 06:02:01;;;;;;;2.50;1.27;;;2.80;99.90;;;;;;5013504;28;20175;-73
2022/02/25 06:04:26;;;;;;;3.47;2.03;;;2.80;99.90;;;;;;5013675;28;20222;-72
2022/02/25 06:06:52;;;;;;;6.40;1.93;;;2.90;99.90;;;;;;5013555;28;20262;-72
2022/02/25 06:09:17;;;;;;;5.87;2.00;;;3.00;99.90;;;;;;5013480;28;20202;-72
2022/02/25 06:11:43;;;;;;;5.90;2.10;;;3.00;99.90;;;;;;5013555;28;20179;-72
2022/02/25 06:14:08;;;;;;;4.53;1.93;;;2.90;99.90;;;;;;5013400;28;20202;-72
2022/02/25 06:16:34;;;;;;;3.10;1.90;;;2.90;99.90;;;;;;5012854;28;20541;-72
2022/02/25 06:19:02;;;;;;;2.50;1.83;;;2.80;99.90;;;;;;5013174;28;20233;-72
2022/02/25 06:21:28;;;;;;;3.53;1.80;;;2.70;99.90;;;;;;5013113;28;20237;-72
2022/02/25 06:23:53;;;;;;;3.73;2.43;;;2.70;99.90;;;;;;5013207;28;20465;-73
2022/02/25 06:26:19;;;;;;;7.67;2.10;;;2.60;99.90;;;;;;5012857;28;20183;-72
2022/02/25 06:28:45;;;;;;;4.00;1.80;;;2.50;99.90;;;;;;5012744;28;20279;-72
2022/02/25 06:31:10;;;;;;;4.40;1.70;;;2.50;99.90;;;;;;5011782;28;20229;-73
2022/02/25 06:33:36;;;;;;;3.53;1.70;;;2.40;99.90;;;;;;5012901;28;20210;-72
2022/02/25 06:36:01;;;;;;;7.93;2.10;;;2.40;99.90;;;;;;5012753;28;20217;-72
2022/02/25 06:38:27;;;;;;;6.47;2.00;;;2.40;99.90;;;;;;5012225;28;20183;-72
2022/02/25 06:40:53;;;;;;;11.07;1.93;;;2.40;99.90;;;;;;5012532;28;20205;-73
2022/02/25 06:43:19;;;;;;;6.13;4.00;;;2.40;99.90;;;;;;5013046;28;20194;-72
2022/02/25 06:45:44;;;;;;;6.73;2.20;;;2.40;99.90;;;;;;5012667;28;20452;-72
2022/02/25 06:48:10;;;;;;;7.80;3.40;;;2.30;99.90;;;;;;5012517;28;20202;-72
2022/02/25 06:50:35;;;;;;;5.03;2.20;;;2.40;99.90;;;;;;5012515;28;20511;-72
2022/02/25 06:53:01;;;;;;;6.20;1.70;;;2.50;99.90;;;;;;5012618;28;20249;-72
2022/02/25 06:55:27;;;;;;;7.77;3.73;;;2.60;99.90;;;;;;5011100;28;20199;-72
2022/02/25 06:57:52;;;;;;;7.00;2.70;;;2.80;99.90;;;;;;5021785;28;20254;-72
2022/02/25 07:00:21;;;;;;;2.67;1.67;;;2.90;99.90;;;;;;5016136;28;20175;-72
2022/02/25 07:02:53;;;;;;;6.30;1.93;;;3.10;99.90;;;;;;5012409;28;20571;-72
2022/02/25 07:05:22;;;;;;;5.20;1.80;;;3.40;99.90;;;;;;5012305;28;20446;-72
2022/02/25 07:07:48;;;;;;;3.43;2.40;;;3.60;99.90;;;;;;4997098;28;20954;-72
2022/02/25 07:10:15;;;;;;;8.00;2.57;;;3.80;99.90;;;;;;5012131;28;20496;-72
2022/02/25 07:12:41;;;;;;;6.43;2.20;;;4.00;99.90;;;;;;5011692;28;20465;-72
2022/02/25 07:15:08;;;;;;;4.57;1.70;;;4.20;99.90;;;;;;5011931;28;20429;-72
2022/02/25 07:17:34;;;;;;;10.20;2.77;;;4.40;99.90;;;;;;5010850;28;20179;-74
2022/02/25 07:20:00;;;;;;;3.30;2.33;;;4.40;99.90;;;;;;5011779;28;20579;-74
2022/02/25 07:22:26;;;;;;;4.77;1.90;;;4.70;99.90;;;;;;5011277;28;20456;-74
2022/02/25 07:24:52;;;;;;;5.30;1.90;;;4.90;99.90;;;;;;5026786;28;20437;-74
2022/02/25 07:27:18;;;;;;;5.50;1.80;;;4.90;99.90;;;;;;5010861;28;20179;-73
2022/02/25 07:29:43;;;;;;;3.37;1.57;;;5.00;99.90;;;;;;5011375;28;20969;-73
2022/02/25 07:32:09;;;;;;;5.67;2.47;;;4.90;99.90;;;;;;5010960;28;20179;-74
2022/02/25 07:34:35;;;;;;;2.90;2.50;;;5.00;99.90;;;;;;5010013;28;20571;-75
2022/02/25 07:37:00;;;;;;;4.07;2.10;;;4.90;99.90;;;;;;5010972;28;20237;-75
2022/02/25 07:39:26;;;;;;;6.30;3.03;;;5.00;99.90;;;;;;5012013;28;20175;-75
2022/02/25 07:41:52;;;;;;;7.50;2.00;;;5.30;99.90;;;;;;5011446;28;20625;-75
2022/02/25 07:44:17;;;;;;;10.80;3.53;;;5.40;99.90;;;;;;5003009;28;20301;-77
2022/02/25 07:46:43;;;;;;;4.80;1.90;;;5.50;99.90;;;;;;4986775;28;20578;-75
2022/02/25 07:49:08;;;;;;;4.37;1.60;;;5.60;99.90;;;;;;5001177;28;20202;-70
2022/02/25 07:51:34;;;;;;;5.60;2.77;;;5.90;99.90;;;;;;5012267;28;20183;-70
2022/02/25 07:54:04;;;;;;;6.23;3.93;;;5.90;99.90;;;;;;5011906;28;20195;-70
2022/02/25 07:56:30;;;;;;;6.83;1.60;;;6.30;99.90;;;;;;5007899;28;20262;-71
2022/02/25 07:58:56;;;;;;;6.60;2.10;;;6.40;99.90;;;;;;5011723;28;20553;-70
2022/02/25 08:01:22;;;;;;;1.80;1.60;;;6.40;99.90;;;;;;5011598;28;20183;-70
2022/02/25 08:03:47;;;;;;;3.90;1.70;;;6.60;99.90;;;;;;5011207;28;20926;-70
2022/02/25 08:06:13;;;;;;;3.73;1.70;;;6.70;99.90;;;;;;5007154;28;20270;-69
2022/02/25 08:08:38;;;;;;;3.73;2.00;;;6.90;99.90;;;;;;5011571;28;20205;-70
2022/02/25 08:11:05;;;;;;;6.17;1.73;;;7.00;99.90;;;;;;5011816;28;20177;-70
2022/02/25 08:13:31;;;;;;;2.87;1.53;;;7.00;99.90;;;;;;5011134;28;20662;-70
2022/02/25 08:15:57;;;;;;;4.30;2.33;;;7.20;99.90;;;;;;5007627;28;20446;-70
2022/02/25 08:18:22;;;;;;;5.83;2.57;;;7.30;99.90;;;;;;5011757;28;20965;-71
2022/02/25 08:20:48;;;;;;;7.07;2.33;;;7.40;99.90;;;;;;5011228;28;20249;-71
2022/02/25 08:23:14;;;;;;;10.23;2.10;;;7.30;99.90;;;;;;5023633;28;20285;-71
2022/02/25 08:25:39;;;;;;;6.50;2.30;;;7.40;99.90;;;;;;5008309;28;20253;-71
2022/02/25 08:28:06;;;;;;;7.60;1.90;;;7.50;99.90;;;;;;5012700;28;20198;-71
2022/02/25 08:30:32;;;;;;;4.60;2.13;;;7.80;99.90;;;;;;5011168;28;20175;-70
2022/02/25 08:33:01;;;;;;;7.53;1.93;;;8.00;99.90;;;;;;5026380;28;20933;-70
2022/02/25 08:35:28;;;;;;;4.53;1.50;;;8.30;99.90;;;;;;5007025;28;20499;-70
2022/02/25 08:37:54;;;;;;;8.93;2.43;;;8.40;99.90;;;;;;5011637;28;20434;-70
2022/02/25 08:40:20;;;;;;;4.40;2.07;;;8.40;99.90;;;;;;5015775;28;20486;-70
2022/02/25 08:42:46;;;;;;;5.83;2.13;;;8.40;99.90;;;;;;5014436;28;20207;-69
2022/02/25 08:45:13;;;;;;;4.03;1.50;;;8.50;99.90;;;;;;5007353;28;20229;-70
2022/02/25 08:47:40;;;;;;;2.97;1.97;;;8.50;99.90;;;;;;5011261;28;20210;-70
2022/02/25 08:50:07;;;;;;;4.20;2.07;;;8.80;99.90;;;;;;5009124;28;20447;-70
2022/02/25 08:52:32;;;;;;;9.13;2.67;;;8.90;99.90;;;;;;5017423;28;20569;-70
2022/02/25 08:54:58;;;;;;;6.07;2.00;;;9.00;99.90;;;;;;5006407;28;20516;-70
2022/02/25 08:57:23;;;;;;;7.50;1.97;;;9.40;99.90;;;;;;5010100;28;20175;-70
2022/02/25 08:59:49;;;;;;;4.73;1.87;;;9.60;99.90;;;;;;5010612;28;20183;-70
2022/02/25 09:02:14;;;;;;;2.63;1.67;;;9.70;99.90;;;;;;5014345;28;20237;-70
2022/02/25 09:04:42;;;;;;;5.20;2.10;;;9.90;99.90;;;;;;5010492;28;20209;-70
2022/02/25 09:07:08;;;;;;;3.87;1.70;;;9.90;99.90;;;;;;5013928;28;20191;-71
2022/02/25 09:09:33;;;;;;;5.13;2.10;;;10.40;99.90;;;;;;5014518;28;20457;-71
2022/02/25 09:11:59;;;;;;;4.03;2.00;;;11.50;99.90;;;;;;5014100;28;20179;-70
2022/02/25 09:14:26;;;;;;;4.50;1.77;;;12.40;96.70;;;;;;5011851;28;20198;-71
2022/02/25 09:16:51;;;;;;;6.63;2.50;;;12.60;95.80;;;;;;5011468;28;20171;-72
2022/02/25 09:19:17;;;;;;;3.97;2.17;;;12.60;94.10;;;;;;5014334;28;20442;-71
2022/02/25 09:21:42;;;;;;;4.07;1.73;;;12.70;93.30;;;;;;5013821;28;20175;-70
2022/02/25 09:24:08;;;;;;;5.63;2.13;;;12.40;93.10;;;;;;5014028;28;20278;-70
2022/02/25 09:26:34;;;;;;;4.93;2.03;;;11.70;94.20;;;;;;5013522;28;20186;-70
2022/02/25 09:29:00;;;;;;;3.90;2.00;;;12.40;92.60;;;;;;5014067;28;20214;-70
2022/02/25 09:31:27;;;;;;;4.37;2.23;;;12.40;91.90;;;;;;5013831;28;20656;-70
2022/02/25 09:33:52;;;;;;;6.37;2.23;;;12.20;91.60;;;;;;5013623;28;20990;-71
2022/02/25 09:36:18;;;;;;;8.43;2.53;;;13.30;91.10;;;;;;5010224;28;20437;-71
2022/02/25 09:38:44;;;;;;;7.87;2.30;;;13.50;86.90;;;;;;5012900;28;20171;-71
2022/02/25 09:41:10;;;;;;;9.63;2.37;;;13.30;86.00;;;;;;5013169;28;20179;-71
2022/02/25 09:43:37;;;;;;;5.20;1.90;;;12.60;86.00;;;;;;5013122;28;20195;-71
2022/02/25 09:46:04;;;;;;;8.97;3.93;;;12.70;84.90;;;;;;5009455;28;20190;-71
2022/02/25 09:48:30;;;;;;;3.77;1.93;;;12.70;86.50;;;;;;5012618;28;20461;-71
2022/02/25 09:50:55;;;;;;;3.00;1.50;;;11.80;88.90;;;;;;5012577;28;20433;-71
2022/02/25 09:53:22;;;;;;;4.50;2.07;;;11.90;85.40;;;;;;5012696;28;20587;-71
2022/02/25 09:55:47;;;;;;;5.43;1.90;;;12.20;83.60;;;;;;5009160;28;20629;-70
2022/02/25 09:58:13;;;;;;;5.63;1.90;;;13.20;82.50;;;;;;5013368;28;20430;-69
2022/02/25 10:00:40;;;;;;;3.23;1.70;;;14.30;78.70;;;;;;5013315;28;20183;-68
2022/02/25 10:03:10;;;;;;;5.60;2.63;;;14.00;76.90;;;;;;5012060;28;20207;-68
2022/02/25 10:05:36;;;;;;;4.30;2.13;;;12.90;79.20;;;;;;5009436;28;20441;-71
2022/02/25 10:08:09;;;;;;;6.40;1.87;;;12.10;82.00;;;;;;5028176;28;20469;-70
2022/02/25 10:10:46;;;;;;;3.07;1.90;;;12.70;82.60;;;;;;5008944;28;20457;-71
2022/02/25 10:13:17;;;;;;;6.60;2.40;;;12.40;81.60;;;;;;5012215;28;20496;-71
2022/02/25 10:15:44;;;;;;;6.33;2.40;;;12.60;79.80;;;;;;5009264;28;20521;-70
2022/02/25 10:18:13;;;;;;;5.13;2.13;;;13.70;79.40;;;;;;5012498;28;20450;-71
2022/02/25 10:20:40;;;;;;;4.77;2.70;;;14.70;75.20;;;;;;5012349;28;20526;-71
2022/02/25 10:23:18;;;;;;;6.03;2.40;;;15.10;73.30;;;;;;5011013;28;20874;-71
2022/02/25 10:25:44;;;;;;;5.87;2.10;;;16.40;68.20;;;;;;5008797;28;20449;-70
2022/02/25 10:28:10;;;;;;;6.10;1.57;;;15.10;65.40;;;;;;5012422;28;20467;-71
2022/02/25 10:30:37;;;;;;;3.90;1.73;;;14.40;67.80;;;;;;5012801;28;20649;-71
2022/02/25 10:33:03;;;;;;;9.70;2.10;;;13.70;70.00;;;;;;5034997;22;20583;-67
2022/02/25 10:35:28;;;;;;;4.50;1.93;;;13.20;71.60;;;;;;5047389;28;20862;-67
2022/02/25 10:38:20;;;;;;;3.13;2.83;;;12.20;74.60;;;;;;5050499;28;20177;-66
2022/02/25 10:40:50;;;;;;;2.70;1.93;;;12.80;75.10;;;;;;5047214;28;20606;-67
2022/02/25 10:43:21;;;;;;;2.97;2.10;;;14.50;71.60;;;;;;5044438;28;20456;-67
2022/02/25 10:45:49;;;;;;;5.17;2.20;;;15.70;65.10;;;;;;5022399;28;20520;-66
2022/02/25 10:48:20;;;;;;;4.43;2.13;;;16.10;61.70;;;;;;5032179;28;21055;-68
2022/02/25 10:50:46;;;;;;;3.97;1.90;;;16.10;59.50;;;;;;5035420;28;20439;-67
2022/02/25 10:53:12;;;;;;;3.90;1.93;;;15.90;59.00;;;;;;5034490;28;20460;-67
2022/02/25 10:55:38;;;;;;;7.70;2.00;;;15.20;60.80;;;;;;5027716;28;20171;-67
2022/02/25 10:58:03;;;;;;;5.83;1.70;;;15.40;60.90;;;;;;5032124;28;20498;-67
2022/02/25 11:00:29;;;;;;;5.23;1.80;;;15.30;60.40;;;;;;5031893;28;20209;-68
2022/02/25 11:03:00;;;;;;;4.10;2.20;;;14.30;61.90;;;;;;5031927;28;20197;-67
2022/02/25 11:05:31;;;;;;;4.60;2.17;;;12.20;65.10;;;;;;5027769;28;20186;-67
2022/02/25 11:08:00;;;;;;;2.40;1.77;;;13.20;67.50;;;;;;5032016;28;20468;-67
2022/02/25 11:10:28;;;;;;;2.60;1.97;;;15.00;65.10;;;;;;5031462;28;20461;-71
2022/02/25 11:12:55;;;;;;;4.80;1.77;;;17.70;58.60;;;;;;5031460;28;20539;-68
2022/02/25 11:15:27;;;;;;;4.23;2.60;;;18.00;56.20;;;;;;5026558;28;20958;-67
2022/02/25 11:17:53;;;;;;;3.97;2.17;;;15.70;56.10;;;;;;5031278;28;20461;-67
2022/02/25 11:20:22;;;;;;;5.00;2.07;;;14.60;59.20;;;;;;5018634;28;20456;-70
2022/02/25 11:22:53;;;;;;;8.27;2.37;;;15.40;58.90;;;;;;5030816;28;20531;-68
2022/02/25 11:25:19;;;;;;;6.43;2.30;;;17.10;55.60;;;;;;5029161;28;20494;-68
2022/02/25 11:27:46;;;;;;;4.30;2.03;;;17.70;53.80;;;;;;5031610;28;20432;-70
2022/02/25 11:30:31;;;;;;;2.53;1.40;;;18.90;52.40;;;;;;5031891;28;20429;-70
2022/02/25 11:32:58;;;;;;;3.87;2.37;;;18.20;50.90;;;;;;5030837;28;20467;-69
2022/02/25 11:35:30;;;;;;;9.17;2.87;;;15.10;54.00;;;;;;5009842;28;20983;-69
2022/02/25 11:38:07;;;;;;;6.83;2.40;;;14.40;56.70;;;;;;5030139;28;20437;-69
2022/02/25 11:40:45;;;;;;;7.03;2.00;;;13.50;56.90;;;;;;5031225;28;20953;-69
2022/02/25 11:43:11;;;;;;;2.07;1.33;;;14.50;55.70;;;;;;5031525;28;20444;-71
2022/02/25 11:45:53;;;;;;;3.47;1.80;;;14.10;56.40;;;;;;5028066;28;20797;-71
2022/02/25 11:48:24;;;;;;;3.90;1.50;;;12.90;58.10;;;;;;5031273;28;20202;-70
2022/02/25 11:50:55;;;;;;;4.00;1.60;;;11.70;59.80;;;;;;5028796;28;20466;-70
2022/02/25 11:53:26;;;;;;;5.47;1.70;;;11.20;63.10;;;;;;5029019;28;20494;-72
2022/02/25 11:55:52;;;;;;;3.97;1.80;;;10.90;66.20;;;;;;5021398;28;20820;-70
2022/02/25 11:58:40;;;;;;;4.30;2.00;;;11.80;63.90;;;;;;5031076;28;20413;-70
2022/02/25 12:01:13;;;;;;;5.13;1.83;;;11.40;63.20;;;;;;5029014;28;20429;-69
2022/02/25 12:03:57;;;;;;;5.13;2.20;;;11.30;65.10;;;;;;5031655;28;20440;-69
2022/02/25 12:06:55;;;;;;;5.80;1.60;;;12.60;63.50;;;;;;5011232;28;20485;-70
2022/02/25 12:09:45;;;;;;;3.93;1.70;;;12.40;61.50;;;;;;5031391;28;20492;-70
2022/02/25 12:12:20;;;;;;;1.87;1.63;;;12.30;63.90;;;;;;5002133;28;20429;-70
2022/02/25 12:15:10;;;;;;;4.63;2.60;;;15.70;58.20;;;;;;5028534;28;20444;-70
2022/02/25 12:17:54;;;;;;;6.07;2.43;;;19.20;52.70;;;;;;5025321;28;20432;-68
2022/02/25 12:20:35;;;;;;;3.43;1.63;;;18.20;51.40;;;;;;5021857;28;20429;-70
2022/02/25 12:23:05;;;;;;;7.80;2.60;;;16.30;53.00;;;;;;5009145;28;20473;-69
2022/02/25 12:25:39;;;;;;;4.93;1.67;;;14.30;54.20;;;;;;5020333;28;20425;-69
2022/02/25 12:28:14;;;;;;;4.17;1.53;;;12.70;57.40;;;;;;5028365;28;20455;-69
2022/02/25 12:30:42;;;;;;;4.40;1.90;;;12.30;59.10;;;;;;5028581;28;20428;-69
2022/02/25 12:33:29;;;;;;;5.47;2.00;;;11.80;59.90;;;;;;5028601;28;20502;-69
2022/02/25 12:35:57;;;;;;;7.40;2.43;;;10.90;61.90;;;;;;5026894;28;20519;-69
2022/02/25 12:38:24;;;;;;;4.33;1.67;;;9.90;70.50;;;;;;5032311;28;20452;-69
2022/02/25 12:40:51;;;;;;;4.20;1.80;;;9.40;90.50;;;;;;5032032;28;20417;-69
2022/02/25 12:43:18;;;;;;;4.60;1.67;;;11.00;90.00;;;;;;5032250;28;20441;-69
2022/02/25 12:45:43;;;;;;;3.47;1.97;;;12.90;84.00;;;;;;5027361;28;20432;-70
2022/02/25 12:48:09;;;;;;;4.23;1.83;;;13.50;81.80;;;;;;5030716;28;20460;-69
2022/02/25 12:50:44;;;;;;;4.27;2.17;;;13.10;82.40;;;;;;5031002;28;20182;-68
2022/02/25 12:53:10;;;;;;;6.43;2.20;;;13.10;82.80;;;;;;5030755;28;20198;-69
2022/02/25 12:55:36;;;;;;;4.63;1.53;;;13.70;80.00;;;;;;5027535;28;20441;-70
2022/02/25 12:58:02;;;;;;;3.10;1.87;;;13.00;80.70;;;;;;5031743;28;20451;-70